createdAt,value
2023-03-08T00:00:21.122Z,95297.16
2023-03-08T00:02:48.856Z,95298.16
2023-03-08T00:05:16.935Z,95292.19
2023-03-08T00:07:44.513Z,95301.72
2023-03-08T00:10:12.881Z,95302.53
2023-03-08T00:12:41.778Z,95304.50
2023-03-08T00:15:09.745Z,95300.13
2023-03-08T00:17:38.579Z,95313.38
2023-03-08T00:20:07.409Z,95311.78
2023-03-08T00:22:36.625Z,95305.63
2023-03-08T00:25:04.346Z,95296.28
2023-03-08T00:27:32.102Z,95304.03
2023-03-08T00:30:00.941Z,95304.03
2023-03-08T00:32:28.954Z,95304.81
2023-03-08T00:34:56.743Z,95320.69
2023-03-08T00:37:24.308Z,95313.09
2023-03-08T00:39:53.009Z,95305.53
2023-03-08T00:42:21.418Z,95306.69
2023-03-08T00:44:49.175Z,95312.84
2023-03-08T00:47:18.207Z,95317.81
2023-03-08T00:49:45.752Z,95311.84
2023-03-08T00:52:13.233Z,95305.09
2023-03-08T00:54:40.787Z,95315.22
2023-03-08T00:57:08.328Z,95312.66
2023-03-08T00:59:35.858Z,95305.09
2023-03-08T01:02:03.407Z,95311.84
2023-03-08T01:04:33.874Z,95303.31
2023-03-08T01:07:01.510Z,95303.31
2023-03-08T01:09:29.051Z,95308.47
2023-03-08T01:11:56.604Z,95310.25
2023-03-08T01:14:24.280Z,95305.09
2023-03-08T01:16:51.846Z,95294.75
2023-03-08T01:19:19.753Z,95284.44
2023-03-08T01:21:48.615Z,95280.06
2023-03-08T01:24:16.086Z,95281.47
2023-03-08T01:26:43.610Z,95279.69
2023-03-08T01:29:11.112Z,95276.94
2023-03-08T01:31:38.666Z,95271.78
2023-03-08T01:34:06.281Z,95265.44
2023-03-08T01:36:33.841Z,95268.84
2023-03-08T01:39:02.789Z,95266.28
2023-03-08T01:41:32.220Z,95266.28
2023-03-08T01:43:59.827Z,95259.47
2023-03-08T01:46:29.223Z,95252.72
2023-03-08T01:49:06.116Z,95255.47
2023-03-08T01:51:39.057Z,95247.72
2023-03-08T01:54:12.502Z,95248.69
2023-03-08T01:56:41.758Z,95254.69
2023-03-08T01:59:09.555Z,95244.34
2023-03-08T02:01:37.445Z,95244.34
2023-03-08T02:04:05.050Z,95240.78
2023-03-08T02:06:32.582Z,95232.06
2023-03-08T02:09:04.364Z,95226.88
2023-03-08T02:11:35.025Z,95235.59
2023-03-08T02:14:03.816Z,95226.06
2023-03-08T02:16:31.558Z,95218.16
2023-03-08T02:19:00.745Z,95214.59
2023-03-08T02:21:30.114Z,95215.38
2023-03-08T02:24:06.169Z,95218.94
2023-03-08T02:26:34.329Z,95224.94
2023-03-08T02:29:01.916Z,95217.19
2023-03-08T02:31:29.445Z,95218.78
2023-03-08T02:33:57.014Z,95220.97
2023-03-08T02:36:24.587Z,95222.78
2023-03-08T02:38:52.130Z,95226.16
2023-03-08T02:41:21.172Z,95220.81
2023-03-08T02:43:48.695Z,95220.63
2023-03-08T02:46:16.487Z,95210.31
2023-03-08T02:48:46.152Z,95202.56
2023-03-08T02:51:13.913Z,95204.13
2023-03-08T02:53:41.412Z,95203.34
2023-03-08T02:56:09.305Z,95196.38
2023-03-08T02:58:38.158Z,95192.84
2023-03-08T03:01:12.295Z,95190.88
2023-03-08T03:03:39.957Z,95185.72
2023-03-08T03:06:15.333Z,95188.28
2023-03-08T03:08:42.930Z,95183.13
2023-03-08T03:11:14.711Z,95179.72
2023-03-08T03:13:43.555Z,95178.91
2023-03-08T03:16:12.692Z,95186.50
2023-03-08T03:18:40.558Z,95174.38
2023-03-08T03:21:10.855Z,95173.41
2023-03-08T03:23:39.065Z,95170.81
2023-03-08T03:26:07.131Z,95166.44
2023-03-08T03:28:34.725Z,95165.66
2023-03-08T03:31:08.121Z,95166.44
2023-03-08T03:33:36.004Z,95163.06
2023-03-08T03:36:04.385Z,95161.28
2023-03-08T03:38:31.974Z,95158.69
2023-03-08T03:41:03.391Z,95159.03
2023-03-08T03:43:31.154Z,95151.84
2023-03-08T03:46:00.092Z,95163.34
2023-03-08T03:48:29.401Z,95157.22
2023-03-08T03:50:58.078Z,95157.84
2023-03-08T03:53:25.704Z,95149.63
2023-03-08T03:55:53.270Z,95151.41
2023-03-08T03:58:20.790Z,95149.00
2023-03-08T04:00:48.435Z,95147.44
2023-03-08T04:03:16.098Z,95138.44
2023-03-08T04:05:45.168Z,95144.72
2023-03-08T04:08:12.675Z,95136.19
2023-03-08T04:10:40.262Z,95128.81
2023-03-08T04:13:07.857Z,95115.56
2023-03-08T04:15:35.441Z,95118.59
2023-03-08T04:18:02.986Z,95108.72
2023-03-08T04:20:30.636Z,95095.91
2023-03-08T04:22:59.588Z,95105.38
2023-03-08T04:25:27.201Z,95094.00
2023-03-08T04:27:54.792Z,95105.28
2023-03-08T04:30:22.488Z,95103.69
2023-03-08T04:32:50.054Z,95092.53
2023-03-08T04:35:17.879Z,95087.13
2023-03-08T04:37:48.260Z,95076.19
2023-03-08T04:40:19.111Z,95078.59
2023-03-08T04:42:47.351Z,95074.22
2023-03-08T04:45:15.209Z,95078.41
2023-03-08T04:47:42.866Z,95080.56
2023-03-08T04:50:11.705Z,95076.47
2023-03-08T04:52:39.331Z,95063.66
2023-03-08T04:55:08.079Z,95068.88
2023-03-08T04:57:37.095Z,95063.47
2023-03-08T05:00:05.931Z,95068.97
2023-03-08T05:02:33.958Z,95061.75
2023-03-08T05:05:01.717Z,95069.06
2023-03-08T05:07:29.333Z,95061.66
2023-03-08T05:09:56.900Z,95063.34
2023-03-08T05:12:24.466Z,95064.22
2023-03-08T05:14:53.415Z,95071.22
2023-03-08T05:17:21.713Z,95071.56
2023-03-08T05:19:49.323Z,95060.09
2023-03-08T05:22:16.881Z,95047.06
2023-03-08T05:24:44.468Z,95035.31
2023-03-08T05:27:12.059Z,95035.50
2023-03-08T05:29:39.607Z,95030.69
2023-03-08T05:32:12.071Z,95031.31
2023-03-08T05:34:39.783Z,95025.66
2023-03-08T05:37:07.347Z,95029.63
2023-03-08T05:39:34.882Z,95028.03
2023-03-08T05:42:02.425Z,95033.19
2023-03-08T05:44:30.320Z,95036.38
2023-03-08T05:46:57.889Z,95028.47
2023-03-08T05:49:26.860Z,95028.03
2023-03-08T05:51:54.752Z,95019.22
2023-03-08T05:54:22.361Z,95008.47
2023-03-08T05:56:49.935Z,95018.16
2023-03-08T05:59:17.930Z,95012.38
2023-03-08T06:01:45.542Z,95017.53
2023-03-08T06:04:13.235Z,95018.78
2023-03-08T06:06:42.119Z,95015.66
2023-03-08T06:09:09.735Z,95021.63
2023-03-08T06:11:37.354Z,95033.53
2023-03-08T06:14:04.915Z,95028.47
2023-03-08T06:16:32.526Z,95023.44
2023-03-08T06:19:00.086Z,95033.03
2023-03-08T06:21:27.695Z,95033.03
2023-03-08T06:23:56.601Z,95033.84
2023-03-08T06:26:24.142Z,95034.00
2023-03-08T06:28:51.650Z,95032.03
2023-03-08T06:31:20.757Z,95037.03
2023-03-08T06:33:48.272Z,95033.50
2023-03-08T06:36:18.005Z,95040.69
2023-03-08T06:38:45.854Z,95041.13
2023-03-08T06:41:16.419Z,95054.72
2023-03-08T06:43:44.379Z,95036.34
2023-03-08T06:46:14.209Z,95040.97
2023-03-08T06:48:41.832Z,95032.69
2023-03-08T06:51:09.909Z,95027.97
2023-03-08T06:53:38.178Z,95014.72
2023-03-08T06:56:06.845Z,95012.94
2023-03-08T06:58:38.081Z,95016.50
2023-03-08T07:01:07.051Z,95016.50
2023-03-08T07:03:34.855Z,95022.91
2023-03-08T07:06:03.704Z,95009.19
2023-03-08T07:08:31.388Z,94991.94
2023-03-08T07:10:59.980Z,94997.44
2023-03-08T07:13:29.000Z,94982.69
2023-03-08T07:16:09.539Z,94975.94
2023-03-08T07:18:37.328Z,94973.19
2023-03-08T07:21:05.498Z,94969.25
2023-03-08T07:23:33.424Z,94968.09
2023-03-08T07:26:01.032Z,94964.53
2023-03-08T07:28:28.651Z,94968.72
2023-03-08T07:30:56.271Z,94967.91
2023-03-08T07:33:25.411Z,94960.16
2023-03-08T07:35:53.200Z,94946.09
2023-03-08T07:38:20.982Z,94940.34
2023-03-08T07:40:55.516Z,94943.28
2023-03-08T07:43:23.193Z,94936.88
2023-03-08T07:45:50.754Z,94933.88
2023-03-08T07:48:18.370Z,94943.19
2023-03-08T07:50:47.448Z,94951.56
2023-03-08T07:53:16.371Z,94953.75
2023-03-08T07:55:43.953Z,94961.50
2023-03-08T07:58:11.537Z,94957.78
2023-03-08T08:00:39.358Z,94944.88
2023-03-08T08:03:06.997Z,94931.97
2023-03-08T08:05:36.292Z,94931.53
2023-03-08T08:08:05.671Z,94932.72
2023-03-08T08:10:33.231Z,94923.19
2023-03-08T08:13:00.893Z,94908.50
2023-03-08T08:15:30.895Z,94891.44
2023-03-08T08:17:58.617Z,94902.47
2023-03-08T08:20:26.795Z,94905.66
2023-03-08T08:22:54.698Z,94887.63
2023-03-08T08:25:23.599Z,94885.81
2023-03-08T08:27:51.980Z,94886.81
2023-03-08T08:30:19.770Z,94873.94
2023-03-08T08:32:47.463Z,94876.69
2023-03-08T08:35:15.077Z,94870.28
2023-03-08T08:37:42.684Z,94874.66
2023-03-08T08:40:12.204Z,94868.69
2023-03-08T08:42:41.123Z,94866.75
2023-03-08T08:45:10.669Z,94862.78
2023-03-08T08:47:38.462Z,94838.97
2023-03-08T08:50:06.721Z,94833.00
2023-03-08T08:52:37.454Z,94820.31
2023-03-08T08:55:05.550Z,94814.25
2023-03-08T08:57:33.068Z,94819.19
2023-03-08T09:00:01.961Z,94805.50
2023-03-08T09:02:29.554Z,94797.50
2023-03-08T09:04:57.253Z,94791.13
2023-03-08T09:07:24.878Z,94789.69
2023-03-08T09:09:55.280Z,94778.16
2023-03-08T09:12:22.810Z,94779.13
2023-03-08T09:14:50.371Z,94751.41
2023-03-08T09:17:19.196Z,94741.88
2023-03-08T09:19:46.697Z,94720.03
2023-03-08T09:22:14.261Z,94705.66
2023-03-08T09:24:41.761Z,94720.50
2023-03-08T09:27:09.383Z,94726.72
2023-03-08T09:29:38.076Z,94730.53
2023-03-08T09:32:06.506Z,94716.53
2023-03-08T09:34:35.623Z,94726.47
2023-03-08T09:37:03.262Z,94698.97
2023-03-08T09:39:30.808Z,94703.94
2023-03-08T09:42:00.555Z,94711.13
2023-03-08T09:45:06.500Z,94692.44
2023-03-08T09:47:42.725Z,94709.66
2023-03-08T09:50:22.478Z,94708.31
2023-03-08T09:52:54.548Z,94694.06
2023-03-08T09:55:30.159Z,94695.06
2023-03-08T09:58:00.948Z,94682.63
2023-03-08T10:00:32.115Z,94698.94
2023-03-08T10:03:16.491Z,94691.06
2023-03-08T10:05:52.576Z,94691.28
2023-03-08T10:08:26.506Z,94693.34
2023-03-08T10:11:00.610Z,94684.41
2023-03-08T10:13:33.963Z,94686.25
2023-03-08T10:16:15.567Z,94686.47
2023-03-08T10:18:49.072Z,94696.03
2023-03-08T10:21:20.426Z,94690.09
2023-03-08T10:23:52.142Z,94683.38
2023-03-08T10:26:19.696Z,94698.91
2023-03-08T10:28:47.252Z,94695.97
2023-03-08T10:31:22.404Z,94684.25
2023-03-08T10:33:53.462Z,94678.72
2023-03-08T10:36:24.192Z,94675.56
2023-03-08T10:39:02.907Z,94666.22
2023-03-08T10:41:32.915Z,94659.69
2023-03-08T10:44:01.358Z,94664.28
2023-03-08T10:46:32.869Z,94657.56
2023-03-08T10:49:11.075Z,94650.22
2023-03-08T10:51:39.972Z,94654.81
2023-03-08T10:54:07.970Z,94650.25
2023-03-08T10:56:38.690Z,94653.03
2023-03-08T10:59:15.674Z,94649.84
2023-03-08T11:01:50.632Z,94639.94
2023-03-08T11:04:20.673Z,94646.31
2023-03-08T11:06:49.974Z,94635.56
2023-03-08T11:09:23.052Z,94636.78
2023-03-08T11:11:50.630Z,94636.38
2023-03-08T11:14:18.424Z,94632.22
2023-03-08T11:17:03.746Z,94626.44
2023-03-08T11:19:43.834Z,94635.22
2023-03-08T11:22:24.797Z,94626.88
2023-03-08T11:25:13.750Z,94624.09
2023-03-08T11:27:55.527Z,94631.84
2023-03-08T11:30:33.582Z,94618.50
2023-03-08T11:33:16.675Z,94597.41
2023-03-08T11:35:49.969Z,94604.97
2023-03-08T11:38:22.883Z,94593.44
2023-03-08T11:40:56.035Z,94595.41
2023-03-08T11:43:41.221Z,94599.78
2023-03-08T11:46:16.218Z,94592.25
2023-03-08T11:48:57.541Z,94593.03
2023-03-08T11:51:33.763Z,94583.06
2023-03-08T11:54:16.721Z,94580.84
2023-03-08T11:56:48.457Z,94573.47
2023-03-08T11:59:27.603Z,94571.25
2023-03-08T12:02:00.617Z,94575.19
2023-03-08T12:04:36.591Z,94577.16
2023-03-08T12:07:10.275Z,94590.84
2023-03-08T12:09:46.789Z,94558.53
2023-03-08T12:12:22.161Z,94569.81
2023-03-08T12:14:56.883Z,94563.97
2023-03-08T12:17:28.281Z,94575.28
2023-03-08T12:19:56.142Z,94576.19
2023-03-08T12:22:45.977Z,94580.28
2023-03-08T12:25:24.107Z,94568.44
2023-03-08T12:27:57.508Z,94564.78
2023-03-08T12:30:36.418Z,94556.72
2023-03-08T12:33:06.625Z,94574.63
2023-03-08T12:35:36.179Z,94567.81
2023-03-08T12:38:07.597Z,94568.53
2023-03-08T12:40:42.323Z,94571.63
2023-03-08T12:43:12.581Z,94564.56
2023-03-08T12:45:41.404Z,94576.50
2023-03-08T12:48:18.869Z,94585.00
2023-03-08T12:51:00.634Z,94578.13
2023-03-08T12:53:36.025Z,94584.09
2023-03-08T12:56:08.041Z,94580.38
2023-03-08T12:58:39.092Z,94583.16
2023-03-08T13:01:08.845Z,94583.50
2023-03-08T13:03:41.389Z,94582.66
2023-03-08T13:06:28.955Z,94578.81
2023-03-08T13:09:01.624Z,94571.59
2023-03-08T13:11:40.738Z,94575.94
2023-03-08T13:14:25.422Z,94584.44
2023-03-08T13:16:53.308Z,94574.97
2023-03-08T13:19:27.093Z,94583.69
2023-03-08T13:22:06.150Z,94576.84
2023-03-08T13:24:41.425Z,94578.56
2023-03-08T13:27:26.111Z,94584.09
2023-03-08T13:29:54.941Z,94569.31
2023-03-08T13:32:25.218Z,94580.03
2023-03-08T13:34:59.925Z,94583.00
2023-03-08T13:37:30.255Z,94572.97
2023-03-08T13:39:59.480Z,94574.34
2023-03-08T13:42:29.982Z,94579.53
2023-03-08T13:45:08.834Z,94583.28
2023-03-08T13:47:38.803Z,94584.63
2023-03-08T13:50:07.747Z,94584.97
2023-03-08T13:52:39.085Z,94582.94
2023-03-08T13:55:14.745Z,94580.13
2023-03-08T13:57:43.849Z,94584.44
2023-03-08T14:00:25.274Z,94579.38
2023-03-08T14:02:53.621Z,94583.31
2023-03-08T14:05:23.611Z,94584.72
2023-03-08T14:07:59.309Z,94579.03
2023-03-08T14:10:32.852Z,94576.81
2023-03-08T14:13:01.845Z,94573.75
2023-03-08T14:15:30.323Z,94574.88
2023-03-08T14:17:58.293Z,94562.44
2023-03-08T14:20:26.492Z,94565.16
2023-03-08T14:22:55.345Z,94557.03
2023-03-08T14:25:26.649Z,94550.56
2023-03-08T14:27:54.697Z,94548.75
2023-03-08T14:30:25.030Z,94539.47
2023-03-08T14:33:00.055Z,94546.59
2023-03-08T14:35:29.627Z,94538.56
2023-03-08T14:37:58.562Z,94527.94
2023-03-08T14:40:35.420Z,94526.13
2023-03-08T14:43:05.413Z,94523.06
2023-03-08T14:45:37.134Z,94512.19
2023-03-08T14:48:22.792Z,94523.75
2023-03-08T14:50:56.255Z,94520.91
2023-03-08T14:53:29.194Z,94512.63
2023-03-08T14:55:57.508Z,94510.81
2023-03-08T14:58:28.393Z,94506.41
2023-03-08T15:01:01.030Z,94501.97
2023-03-08T15:03:29.575Z,94505.97
2023-03-08T15:05:57.501Z,94508.88
2023-03-08T15:08:25.962Z,94505.28
2023-03-08T15:10:53.922Z,94499.03
2023-03-08T15:13:23.841Z,94494.38
2023-03-08T15:15:51.610Z,94488.38
2023-03-08T15:18:20.894Z,94488.59
2023-03-08T15:20:50.970Z,94500.63
2023-03-08T15:23:22.883Z,94498.03
2023-03-08T15:25:51.071Z,94489.66
2023-03-08T15:28:20.428Z,94486.00
2023-03-08T15:30:48.510Z,94492.25
2023-03-08T15:33:16.065Z,94484.44
2023-03-08T15:35:44.996Z,94488.38
2023-03-08T15:38:14.628Z,94475.94
2023-03-08T15:40:42.833Z,94492.34
2023-03-08T15:43:11.332Z,94488.72
2023-03-08T15:45:39.226Z,94487.13
2023-03-08T15:48:08.306Z,94495.72
2023-03-08T15:50:36.486Z,94491.34
2023-03-08T15:53:05.406Z,94500.72
2023-03-08T15:55:33.311Z,94486.22
2023-03-08T15:58:00.887Z,94489.59
2023-03-08T16:00:28.665Z,94478.97
2023-03-08T16:02:56.918Z,94483.13
2023-03-08T16:05:25.201Z,94484.75
2023-03-08T16:07:56.238Z,94487.91
2023-03-08T16:10:25.264Z,94484.25
2023-03-08T16:12:53.318Z,94493.44
2023-03-08T16:15:21.191Z,94486.19
2023-03-08T16:17:48.821Z,94485.72
2023-03-08T16:20:16.878Z,94476.09
2023-03-08T16:22:46.379Z,94488.91
2023-03-08T16:25:14.295Z,94476.47
2023-03-08T16:27:43.184Z,94475.19
2023-03-08T16:30:12.891Z,94461.91
2023-03-08T16:32:40.483Z,94473.94
2023-03-08T16:35:08.760Z,94474.72
2023-03-08T16:37:36.346Z,94474.94
2023-03-08T16:40:05.586Z,94471.34
2023-03-08T16:42:33.144Z,94466.69
2023-03-08T16:45:02.281Z,94476.31
2023-03-08T16:47:32.190Z,94471.13
2023-03-08T16:50:00.509Z,94473.94
2023-03-08T16:52:28.055Z,94471.91
2023-03-08T16:54:55.559Z,94473.47
2023-03-08T16:57:23.077Z,94465.19
2023-03-08T16:59:50.567Z,94469.38
2023-03-08T17:02:21.517Z,94478.53
2023-03-08T17:04:50.090Z,94486.84
2023-03-08T17:07:18.248Z,94479.00
2023-03-08T17:09:46.227Z,94494.66
2023-03-08T17:12:13.906Z,94481.16
2023-03-08T17:14:41.466Z,94474.13
2023-03-08T17:17:10.396Z,94469.94
2023-03-08T17:19:41.066Z,94470.16
2023-03-08T17:22:09.405Z,94487.88
2023-03-08T17:24:36.955Z,94490.13
2023-03-08T17:27:04.983Z,94484.38
2023-03-08T17:29:32.555Z,94495.00
2023-03-08T17:32:00.138Z,94505.91
2023-03-08T17:34:27.714Z,94505.31
2023-03-08T17:36:56.582Z,94520.16
2023-03-08T17:39:24.214Z,94510.53
2023-03-08T17:41:51.700Z,94505.53
2023-03-08T17:44:19.216Z,94508.94
2023-03-08T17:46:46.723Z,94508.94
2023-03-08T17:49:16.140Z,94515.75
2023-03-08T17:51:45.729Z,94512.13
2023-03-08T17:54:14.675Z,94501.94
2023-03-08T17:56:42.281Z,94487.28
2023-03-08T17:59:14.754Z,94490.94
2023-03-08T18:01:42.549Z,94493.78
2023-03-08T18:04:10.297Z,94494.81
2023-03-08T18:06:39.433Z,94499.44
2023-03-08T18:09:08.889Z,94496.59
2023-03-08T18:11:38.348Z,94488.00
2023-03-08T18:14:06.403Z,94492.66
2023-03-08T18:16:34.255Z,94490.25
2023-03-08T18:19:02.419Z,94491.28
2023-03-08T18:21:31.238Z,94497.28
2023-03-08T18:23:59.463Z,94497.84
2023-03-08T18:26:27.233Z,94489.03
2023-03-08T18:28:56.372Z,94503.06
2023-03-08T18:31:26.723Z,94496.84
2023-03-08T18:33:55.448Z,94499.44
2023-03-08T18:36:24.343Z,94499.69
2023-03-08T18:38:52.210Z,94494.69
2023-03-08T18:41:32.616Z,94491.53
2023-03-08T18:44:02.471Z,94486.31
2023-03-08T18:46:31.965Z,94496.16
2023-03-08T18:49:01.878Z,94484.41
2023-03-08T18:51:30.407Z,94494.03
2023-03-08T18:53:58.940Z,94490.63
2023-03-08T18:56:27.138Z,94477.63
2023-03-08T18:58:55.610Z,94465.38
2023-03-08T19:01:25.117Z,94472.41
2023-03-08T19:03:53.041Z,94461.16
2023-03-08T19:06:20.683Z,94470.59
2023-03-08T19:08:48.629Z,94476.59
2023-03-08T19:11:17.834Z,94473.19
2023-03-08T19:13:46.034Z,94484.41
2023-03-08T19:16:19.030Z,94484.97
2023-03-08T19:18:49.259Z,94479.53
2023-03-08T19:21:18.613Z,94469.09
2023-03-08T19:23:46.542Z,94469.88
2023-03-08T19:26:40.788Z,94473.28
2023-03-08T19:29:11.841Z,94468.31
2023-03-08T19:31:42.149Z,94466.50
2023-03-08T19:34:13.179Z,94462.28
2023-03-08T19:36:41.593Z,94473.53
2023-03-08T19:39:11.562Z,94462.28
2023-03-08T19:41:39.345Z,94475.09
2023-03-08T19:44:08.063Z,94461.84
2023-03-08T19:46:36.245Z,94475.44
2023-03-08T19:49:05.836Z,94470.78
2023-03-08T19:51:35.150Z,94471.34
2023-03-08T19:54:03.084Z,94471.34
2023-03-08T19:56:30.745Z,94473.72
2023-03-08T19:58:59.303Z,94470.88
2023-03-08T20:01:27.975Z,94480.25
2023-03-08T20:03:56.153Z,94467.25
2023-03-08T20:06:25.114Z,94470.88
2023-03-08T20:08:55.447Z,94482.88
2023-03-08T20:11:23.174Z,94482.88
2023-03-08T20:13:51.188Z,94470.44
2023-03-08T20:16:19.294Z,94472.81
2023-03-08T20:18:49.160Z,94472.81
2023-03-08T20:21:17.240Z,94478.25
2023-03-08T20:23:44.882Z,94470.66
2023-03-08T20:26:14.125Z,94461.63
2023-03-08T20:28:41.683Z,94471.25
2023-03-08T20:31:10.148Z,94465.00
2023-03-08T20:33:38.078Z,94478.81
2023-03-08T20:36:06.535Z,94459.78
2023-03-08T20:38:34.390Z,94459.00
2023-03-08T20:41:04.169Z,94473.03
2023-03-08T20:43:33.944Z,94460.00
2023-03-08T20:46:05.818Z,94470.88
2023-03-08T20:48:33.887Z,94467.72
2023-03-08T20:51:02.298Z,94482.56
2023-03-08T20:53:31.282Z,94482.31
2023-03-08T20:55:58.949Z,94484.13
2023-03-08T20:58:27.245Z,94498.97
2023-03-08T21:00:56.328Z,94499.75
2023-03-08T21:03:23.932Z,94494.81
2023-03-08T21:05:51.647Z,94488.00
2023-03-08T21:08:19.738Z,94476.22
2023-03-08T21:10:47.308Z,94491.06
2023-03-08T21:13:14.836Z,94485.06
2023-03-08T21:15:42.811Z,94485.88
2023-03-08T21:18:11.771Z,94495.03
2023-03-08T21:20:39.593Z,94480.19
2023-03-08T21:23:07.225Z,94485.94
2023-03-08T21:25:36.731Z,94472.94
2023-03-08T21:28:05.413Z,94478.91
2023-03-08T21:30:33.404Z,94485.94
2023-03-08T21:33:00.953Z,94500.03
2023-03-08T21:35:31.907Z,94492.41
2023-03-08T21:37:59.955Z,94502.75
2023-03-08T21:40:27.549Z,94505.22
2023-03-08T21:42:55.154Z,94516.34
2023-03-08T21:45:22.820Z,94512.63
2023-03-08T21:47:50.462Z,94523.50
2023-03-08T21:50:18.790Z,94514.34
2023-03-08T21:52:58.344Z,94501.53
2023-03-08T21:55:33.140Z,94518.97
2023-03-08T21:58:00.767Z,94522.38
2023-03-08T22:00:32.711Z,94510.34
2023-03-08T22:03:00.486Z,94503.34
2023-03-08T22:05:28.128Z,94500.75
2023-03-08T22:07:57.097Z,94503.09
2023-03-08T22:10:24.720Z,94503.09
2023-03-08T22:12:52.259Z,94499.50
2023-03-08T22:15:20.094Z,94489.88
2023-03-08T22:17:47.733Z,94495.06
2023-03-08T22:20:15.509Z,94496.31
2023-03-08T22:22:44.082Z,94504.94
2023-03-08T22:25:13.203Z,94500.97
2023-03-08T22:27:40.746Z,94506.41
2023-03-08T22:30:10.736Z,94504.03
2023-03-08T22:32:40.079Z,94502.44
2023-03-08T22:35:09.159Z,94502.44
2023-03-08T22:37:37.029Z,94497.25
2023-03-08T22:40:06.290Z,94507.66
2023-03-08T22:42:35.793Z,94518.06
2023-03-08T22:45:03.577Z,94507.66
2023-03-08T22:47:31.569Z,94500.63
2023-03-08T22:49:59.211Z,94510.03
2023-03-08T22:52:29.761Z,94495.19
2023-03-08T22:54:57.290Z,94498.03
2023-03-08T22:57:24.824Z,94493.63
2023-03-08T22:59:57.103Z,94494.41
2023-03-08T23:02:25.263Z,94494.41
2023-03-08T23:04:52.734Z,94495.19
2023-03-08T23:07:20.246Z,94501.97
2023-03-08T23:09:47.733Z,94510.81
2023-03-08T23:12:15.238Z,94492.03
2023-03-08T23:14:45.187Z,94497.47
2023-03-08T23:17:14.217Z,94503.69
2023-03-08T23:19:44.899Z,94490.91
2023-03-08T23:22:13.062Z,94466.13
2023-03-08T23:24:40.549Z,94450.97
2023-03-08T23:27:08.414Z,94443.38
2023-03-08T23:29:36.845Z,94444.38
2023-03-08T23:32:04.808Z,94438.16
2023-03-08T23:34:33.699Z,94438.16
2023-03-08T23:37:03.801Z,94442.34
2023-03-08T23:39:31.352Z,94437.13
2023-03-08T23:41:58.878Z,94439.72
2023-03-08T23:44:26.455Z,94444.94
2023-03-08T23:46:53.959Z,94443.94
2023-03-08T23:49:21.449Z,94447.31
2023-03-08T23:51:50.344Z,94435.09
2023-03-08T23:54:17.844Z,94416.31
2023-03-08T23:56:45.341Z,94412.91
2023-03-08T23:59:16.269Z,94408.50
